createdAt,value
2023-08-01T08:20:58.960Z,16.23
2023-08-01T08:23:31.072Z,16.33
2023-08-01T08:26:00.141Z,16.26
2023-08-01T08:28:36.102Z,16.29
2023-08-01T08:31:05.110Z,16.25
2023-08-01T08:33:33.293Z,16.26
2023-08-01T08:36:03.585Z,16.22
2023-08-01T08:38:31.895Z,16.23
2023-08-01T08:41:15.425Z,16.17
2023-08-01T08:43:47.668Z,16.09
2023-08-01T08:46:18.588Z,16.00
2023-08-01T08:48:47.812Z,15.96
2023-08-01T08:51:18.029Z,15.86
2023-08-01T08:53:47.456Z,15.80
2023-08-01T08:56:17.018Z,15.68
2023-08-01T09:00:43.803Z,15.59
2023-08-01T09:03:12.218Z,15.61
2023-08-01T09:05:51.896Z,15.62
2023-08-01T09:08:25.432Z,15.73
2023-08-01T09:10:57.187Z,15.84
2023-08-01T09:13:27.483Z,15.96
2023-08-01T09:15:58.773Z,16.04
2023-08-01T09:18:27.745Z,16.08
2023-08-01T09:21:05.562Z,16.13
2023-08-01T09:23:39.320Z,16.16
2023-08-01T09:26:23.708Z,16.27
2023-08-01T09:28:58.490Z,16.42
2023-08-01T09:31:38.103Z,16.53
2023-08-01T09:34:07.968Z,16.53
2023-08-01T09:36:36.031Z,16.50
2023-08-01T09:39:09.488Z,16.71
2023-08-01T09:41:40.044Z,16.74
2023-08-01T09:44:13.666Z,16.89
2023-08-01T09:46:49.761Z,17.01
2023-08-01T09:49:18.119Z,16.95
2023-08-01T09:51:54.979Z,16.86
2023-08-01T09:54:24.527Z,16.85
2023-08-01T09:56:58.585Z,16.85
2023-08-01T09:59:27.810Z,17.01
2023-08-01T10:03:14.706Z,16.99
2023-08-01T10:05:46.920Z,17.08
2023-08-01T10:08:17.151Z,17.39
2023-08-01T10:10:45.578Z,17.63
2023-08-01T10:13:14.750Z,17.63
2023-08-01T10:15:42.980Z,17.66
2023-08-01T10:18:11.742Z,17.74
2023-08-01T10:20:41.481Z,17.96
2023-08-01T10:23:11.369Z,17.73
2023-08-01T10:25:41.454Z,17.68
2023-08-01T10:28:14.981Z,17.62
2023-08-01T10:30:43.595Z,17.61
2023-08-01T10:33:14.467Z,17.60
2023-08-01T10:35:44.211Z,17.61
2023-08-01T10:38:15.794Z,17.68
2023-08-01T10:40:45.693Z,17.76
2023-08-01T10:43:26.612Z,17.84
2023-08-01T10:46:05.414Z,17.93
2023-08-01T10:48:34.298Z,17.73
2023-08-01T10:51:05.909Z,17.81
2023-08-01T10:53:42.420Z,17.93
2023-08-01T10:56:22.264Z,17.97
2023-08-01T10:58:52.283Z,17.99
2023-08-01T11:01:21.132Z,18.08
2023-08-01T11:03:51.831Z,18.02
2023-08-01T11:06:21.273Z,18.14
2023-08-01T11:08:49.392Z,18.24
2023-08-01T11:11:19.811Z,18.44
2023-08-01T11:13:57.728Z,18.65
2023-08-01T11:16:27.170Z,18.86
2023-08-01T11:18:56.818Z,18.97
2023-08-01T11:21:31.171Z,18.73
2023-08-01T11:23:59.274Z,18.56
2023-08-01T11:26:28.431Z,18.38
2023-08-01T11:29:01.975Z,18.40
2023-08-01T11:31:33.214Z,18.48
2023-08-01T11:34:01.731Z,18.37
2023-08-01T11:36:32.003Z,18.44
2023-08-01T11:39:14.360Z,18.58
2023-08-01T11:41:44.461Z,18.47
2023-08-01T11:44:13.474Z,18.38
2023-08-01T11:46:43.665Z,18.39
2023-08-01T11:49:16.880Z,18.33
2023-08-01T11:51:47.072Z,18.50
2023-08-01T11:54:16.475Z,18.48
2023-08-01T11:56:45.644Z,18.15
2023-08-01T11:59:22.885Z,18.09
2023-08-01T12:01:54.532Z,17.96
2023-08-01T12:04:29.757Z,18.04
2023-08-01T12:06:58.690Z,17.88
2023-08-01T12:09:28.594Z,17.92
2023-08-01T12:12:03.061Z,18.14
2023-08-01T12:14:35.219Z,18.73
2023-08-01T12:17:05.867Z,19.18
2023-08-01T12:19:35.538Z,19.71
2023-08-01T12:22:05.003Z,20.47
2023-08-01T12:24:34.361Z,20.67
2023-08-01T12:27:02.331Z,21.55
2023-08-01T12:29:29.958Z,22.02
2023-08-01T12:31:58.480Z,22.22
2023-08-01T12:34:26.174Z,22.13
2023-08-01T12:36:57.750Z,21.31
2023-08-01T12:39:27.938Z,21.36
2023-08-01T12:41:57.370Z,20.60
2023-08-01T12:44:28.148Z,20.84
2023-08-01T12:46:55.828Z,20.82
2023-08-01T12:49:23.442Z,20.92
2023-08-01T12:51:52.908Z,20.59
2023-08-01T12:54:22.160Z,20.42
2023-08-01T12:56:50.123Z,19.85
2023-08-01T12:59:17.667Z,19.50
2023-08-01T13:01:46.670Z,19.35
2023-08-01T13:04:15.313Z,19.14
2023-08-01T13:06:45.717Z,18.96
2023-08-01T13:09:16.793Z,18.79
2023-08-01T13:11:45.945Z,18.75
2023-08-01T13:14:18.796Z,18.64
2023-08-01T13:16:49.681Z,18.71
2023-08-01T13:19:17.841Z,18.65
2023-08-01T13:21:46.389Z,18.74
2023-08-01T13:24:15.444Z,18.76
2023-08-01T13:26:43.850Z,19.99
2023-08-01T13:29:12.007Z,21.13
2023-08-01T13:31:39.775Z,22.20
2023-08-01T13:34:09.074Z,23.11
2023-08-01T13:36:42.810Z,22.80
2023-08-01T13:39:13.881Z,21.43
2023-08-01T13:41:44.794Z,20.41
2023-08-01T13:44:13.126Z,19.88
2023-08-01T13:46:41.791Z,19.28
2023-08-01T13:49:09.893Z,18.78
2023-08-01T13:51:38.915Z,18.68
2023-08-01T13:54:09.406Z,18.34
2023-08-01T13:56:39.679Z,17.81
2023-08-01T13:59:07.805Z,17.08
2023-08-01T14:01:37.215Z,16.61
2023-08-01T14:04:07.147Z,16.39
2023-08-01T14:06:35.850Z,16.30
2023-08-01T14:09:04.581Z,16.47
2023-08-01T14:11:32.742Z,16.78
2023-08-01T14:14:02.180Z,16.88
2023-08-01T14:16:31.489Z,17.02
2023-08-01T14:19:06.070Z,17.26
2023-08-01T14:21:38.891Z,17.35
2023-08-01T14:24:07.680Z,17.55
2023-08-01T14:26:35.694Z,17.62
2023-08-01T14:29:06.505Z,17.79
2023-08-01T14:31:36.564Z,17.71
2023-08-01T14:34:04.873Z,17.65
2023-08-01T14:36:35.091Z,17.87
2023-08-01T14:39:20.386Z,18.02
2023-08-01T14:44:23.426Z,18.58
2023-08-01T14:46:56.039Z,18.65
2023-08-01T14:49:26.987Z,18.58
2023-08-01T14:51:55.385Z,18.77
2023-08-01T14:54:37.422Z,19.43
2023-08-01T14:57:10.110Z,19.94
2023-08-01T14:59:38.173Z,20.32
2023-08-01T15:02:09.617Z,20.82
2023-08-01T15:04:39.685Z,20.73
2023-08-01T15:07:08.957Z,21.49
2023-08-01T15:09:37.098Z,21.89
2023-08-01T15:12:05.245Z,21.84
2023-08-01T15:14:33.795Z,21.80
2023-08-01T15:17:01.740Z,22.25
2023-08-01T15:19:29.613Z,22.27
2023-08-01T15:21:57.986Z,22.22
2023-08-01T15:24:26.170Z,22.55
2023-08-01T15:26:54.359Z,22.94
2023-08-01T15:29:21.895Z,22.47
2023-08-01T15:31:50.003Z,22.29
2023-08-01T15:34:21.610Z,21.52
2023-08-01T15:36:49.329Z,21.66
2023-08-01T15:39:17.371Z,22.30
2023-08-01T15:41:45.083Z,22.37
2023-08-01T15:44:15.664Z,22.04
2023-08-01T15:46:45.144Z,21.88
2023-08-01T15:49:14.541Z,21.70
2023-08-01T15:51:42.731Z,22.02
2023-08-01T15:54:19.929Z,22.50
2023-08-01T15:56:50.488Z,22.57
2023-08-01T15:59:20.558Z,22.81
2023-08-01T16:01:48.411Z,22.72
2023-08-01T16:04:17.009Z,23.38
2023-08-01T16:06:50.688Z,22.78
2023-08-01T16:09:20.335Z,22.62
2023-08-01T16:11:49.717Z,23.08
2023-08-01T16:14:31.167Z,22.84
2023-08-01T16:17:15.836Z,22.39
2023-08-01T16:19:44.564Z,22.23
2023-08-01T16:22:18.264Z,22.38
2023-08-01T16:24:46.255Z,22.57
2023-08-01T16:27:14.278Z,22.12
2023-08-01T16:29:43.028Z,22.24
2023-08-01T16:32:11.835Z,22.41
2023-08-01T16:34:41.381Z,22.40
2023-08-01T16:37:12.635Z,22.45
2023-08-01T16:39:42.430Z,22.11
2023-08-01T16:42:11.297Z,21.65
2023-08-01T16:44:39.563Z,22.04
2023-08-01T16:47:07.930Z,22.03
2023-08-01T16:49:35.450Z,22.25
2023-08-01T16:52:04.427Z,22.36
2023-08-01T16:54:32.868Z,22.74
2023-08-01T16:57:01.724Z,22.77
2023-08-01T16:59:32.170Z,22.55
2023-08-01T17:02:01.191Z,22.59
2023-08-01T17:04:29.422Z,22.70
2023-08-01T17:06:57.306Z,22.60
2023-08-01T17:09:24.825Z,22.25
2023-08-01T17:11:53.216Z,22.43
2023-08-01T17:14:21.131Z,22.65
2023-08-01T17:16:49.776Z,21.77
2023-08-01T17:19:18.054Z,21.37
2023-08-01T17:21:50.353Z,21.02
2023-08-01T17:24:19.203Z,20.69
2023-08-01T17:26:48.414Z,20.53
2023-08-01T17:29:16.128Z,20.47
2023-08-01T17:31:44.498Z,20.34
2023-08-01T17:34:12.924Z,20.27
2023-08-01T17:36:41.991Z,20.17
2023-08-01T17:39:14.534Z,20.10
2023-08-01T17:41:48.144Z,20.04
2023-08-01T17:44:17.919Z,20.02
2023-08-01T17:46:47.071Z,19.52
2023-08-01T17:49:14.887Z,18.64
2023-08-01T17:51:42.550Z,18.30
2023-08-01T17:54:10.320Z,17.81
2023-08-01T17:56:40.665Z,17.54
2023-08-01T17:59:17.546Z,17.63
2023-08-01T18:01:47.613Z,17.55
2023-08-01T18:04:15.562Z,17.42
2023-08-01T18:06:43.252Z,17.42
2023-08-01T18:09:14.717Z,17.48
2023-08-01T18:11:44.780Z,17.58
2023-08-01T18:14:18.392Z,17.63
2023-08-01T18:16:47.668Z,17.65
2023-08-01T18:19:19.712Z,17.63
2023-08-01T18:21:55.046Z,17.63
2023-08-01T18:24:23.517Z,17.42
2023-08-01T18:26:56.269Z,17.33
2023-08-01T18:29:25.485Z,17.26
2023-08-01T18:31:52.909Z,17.16
2023-08-01T18:34:22.486Z,17.15
2023-08-01T18:36:59.138Z,17.07
2023-08-01T18:39:28.452Z,16.92
2023-08-01T18:41:57.337Z,16.73
2023-08-01T18:44:29.130Z,16.71
2023-08-01T18:47:03.027Z,16.60
2023-08-01T18:49:31.672Z,16.56
2023-08-01T18:52:01.360Z,16.47
2023-08-01T18:54:29.147Z,16.43
2023-08-01T18:56:58.394Z,16.37
2023-08-01T18:59:28.322Z,16.19
2023-08-01T19:01:57.443Z,16.04
2023-08-01T19:04:28.052Z,16.09
2023-08-01T19:06:57.834Z,16.08
2023-08-01T19:09:27.036Z,16.03
2023-08-01T19:11:56.599Z,15.88
2023-08-01T19:14:24.226Z,15.84
2023-08-01T19:16:53.466Z,15.77
2023-08-01T19:19:22.716Z,15.80
2023-08-01T19:21:53.476Z,15.71
2023-08-01T19:24:23.335Z,15.71
2023-08-01T19:27:16.865Z,15.79
2023-08-01T19:29:51.381Z,15.79
2023-08-01T19:32:21.395Z,15.87
2023-08-01T19:34:54.652Z,15.88
2023-08-01T19:37:22.419Z,15.86
2023-08-01T19:39:51.066Z,15.82
2023-08-01T19:42:19.662Z,15.85
2023-08-01T19:44:47.379Z,15.86
2023-08-01T19:47:15.436Z,15.90
2023-08-01T19:49:43.782Z,15.91
2023-08-01T19:52:11.435Z,15.92
2023-08-01T19:54:39.073Z,15.98
2023-08-01T19:57:18.844Z,16.13
2023-08-01T19:59:50.730Z,16.10
2023-08-01T20:02:18.793Z,16.23
2023-08-01T20:04:47.346Z,16.20
2023-08-01T20:07:23.315Z,16.19
2023-08-01T20:09:51.472Z,16.15
2023-08-01T20:12:19.885Z,16.21
2023-08-01T20:14:47.889Z,16.14
2023-08-01T20:17:16.640Z,16.12
2023-08-01T20:19:46.563Z,16.11
2023-08-01T20:22:16.797Z,16.04
2023-08-01T20:24:44.998Z,16.00
2023-08-01T20:27:16.349Z,16.05
2023-08-01T20:29:48.585Z,16.08
2023-08-01T20:32:17.657Z,16.07
2023-08-01T20:34:47.339Z,16.14
2023-08-01T20:37:18.382Z,16.13
2023-08-01T20:39:45.912Z,16.18
2023-08-01T20:42:13.546Z,16.22
2023-08-01T20:44:42.056Z,16.24
2023-08-01T20:47:11.536Z,16.19
2023-08-01T20:49:39.329Z,16.17
2023-08-01T20:52:12.866Z,16.22
2023-08-01T20:54:43.710Z,16.27
2023-08-01T20:57:18.142Z,16.25
2023-08-01T20:59:46.913Z,16.23
2023-08-01T21:02:16.121Z,16.14
2023-08-01T21:04:44.513Z,16.08
2023-08-01T21:07:15.558Z,16.09
2023-08-01T21:09:48.059Z,16.00
2023-08-01T21:12:17.008Z,15.95
2023-08-01T21:14:46.028Z,15.84
2023-08-01T21:17:16.153Z,15.84
2023-08-01T21:19:43.710Z,15.68
2023-08-01T21:22:12.034Z,15.65
2023-08-01T21:24:40.185Z,15.64
2023-08-01T21:27:09.796Z,15.57
2023-08-01T21:29:46.070Z,15.52
2023-08-01T21:32:13.770Z,15.51
2023-08-01T21:34:45.045Z,15.39
2023-08-01T21:37:15.146Z,15.38
2023-08-01T21:39:44.776Z,15.41
2023-08-01T21:42:14.396Z,15.34
2023-08-01T21:44:43.612Z,15.26
2023-08-01T21:47:16.014Z,15.33
2023-08-01T21:49:45.931Z,15.36
2023-08-01T21:52:13.706Z,15.35
2023-08-01T21:54:42.212Z,15.37
2023-08-01T21:57:10.067Z,15.47
2023-08-01T21:59:38.830Z,15.37
2023-08-01T22:02:08.011Z,15.36
2023-08-01T22:04:37.134Z,15.31
2023-08-01T22:07:05.074Z,15.38
2023-08-01T22:09:34.555Z,15.38
2023-08-01T22:12:02.248Z,15.48
2023-08-01T22:14:31.422Z,15.51
2023-08-01T22:17:01.173Z,15.54
2023-08-01T22:19:29.415Z,15.50
2023-08-01T22:21:57.442Z,15.49
2023-08-01T22:24:25.458Z,15.47
2023-08-01T22:26:55.333Z,15.55
2023-08-01T22:29:25.701Z,15.50
2023-08-01T22:31:54.819Z,15.57
2023-08-01T22:34:24.696Z,15.57
2023-08-01T22:36:53.403Z,15.59
2023-08-01T22:39:20.855Z,15.65
2023-08-01T22:41:48.799Z,15.63
2023-08-01T22:44:17.670Z,15.65
2023-08-01T22:46:46.343Z,15.58
2023-08-01T22:49:16.086Z,15.62
2023-08-01T22:51:45.111Z,15.55
2023-08-01T22:54:15.618Z,15.49
2023-08-01T22:56:44.704Z,15.42
2023-08-01T22:59:14.934Z,15.32
2023-08-01T23:01:44.844Z,15.28
2023-08-01T23:04:15.946Z,15.23
2023-08-01T23:06:47.437Z,15.19
2023-08-01T23:09:15.750Z,15.15
2023-08-01T23:11:43.178Z,15.18
2023-08-01T23:14:13.415Z,15.08
2023-08-01T23:16:41.859Z,15.05
2023-08-01T23:19:09.917Z,14.98
2023-08-01T23:21:37.459Z,14.93
2023-08-01T23:24:08.127Z,14.80
2023-08-01T23:26:41.412Z,14.75
2023-08-01T23:29:09.081Z,14.74
2023-08-01T23:31:40.899Z,14.73
2023-08-01T23:34:10.919Z,14.66
2023-08-01T23:36:41.539Z,14.57
2023-08-01T23:39:09.416Z,14.57
2023-08-01T23:41:38.515Z,14.57
2023-08-01T23:44:07.684Z,14.63
2023-08-01T23:46:35.436Z,14.68
2023-08-01T23:49:03.288Z,14.55
2023-08-01T23:51:31.011Z,14.51
2023-08-01T23:53:59.142Z,14.42
2023-08-01T23:56:28.843Z,14.34
2023-08-01T23:58:59.217Z,14.30
